sensor_id;sensor_type;location;lat;lon;timestamp;temperature;humidity
38726;DHT22;24474;48.906;8.808;2024-01-15T00:01:37;-2.10;99.90
38726;DHT22;24474;48.906;8.808;2024-01-15T00:04:02;-2.10;99.90
38726;DHT22;24474;48.906;8.808;2024-01-15T00:06:28;-2.10;99.90
38726;DHT22;24474;48.906;8.808;2024-01-15T00:08:54;-2.10;99.90
38726;DHT22;24474;48.906;8.808;2024-01-15T00:11:19;-2.10;99.90
38726;DHT22;24474;48.906;8.808;2024-01-15T00:13:46;-2.10;99.90
38726;DHT22;24474;48.906;8.808;2024-01-15T00:16:11;-2.00;99.90
38726;DHT22;24474;48.906;8.808;2024-01-15T00:18:37;-2.00;99.90
38726;DHT22;24474;48.906;8.808;2024-01-15T00:21:03;-2.00;99.90
38726;DHT22;24474;48.906;8.808;2024-01-15T00:23:29;-2.00;99.90
38726;DHT22;24474;48.906;8.808;2024-01-15T00:25:55;-2.00;99.90
38726;DHT22;24474;48.906;8.808;2024-01-15T00:28:20;-1.90;99.90
38726;DHT22;24474;48.906;8.808;2024-01-15T00:30:46;-2.00;99.90
38726;DHT22;24474;48.906;8.808;2024-01-15T00:33:12;-1.90;99.90
38726;DHT22;24474;48.906;8.808;2024-01-15T00:35:38;-1.90;99.90
38726;DHT22;24474;48.906;8.808;2024-01-15T00:38:03;-1.90;99.90
38726;DHT22;24474;48.906;8.808;2024-01-15T00:40:29;-1.90;99.90
38726;DHT22;24474;48.906;8.808;2024-01-15T00:42:54;-1.90;99.90
38726;DHT22;24474;48.906;8.808;2024-01-15T00:45:20;-1.90;99.90
38726;DHT22;24474;48.906;8.808;2024-01-15T00:47:46;-1.90;99.90
38726;DHT22;24474;48.906;8.808;2024-01-15T00:50:12;-1.90;99.90
38726;DHT22;24474;48.906;8.808;2024-01-15T00:52:37;-1.80;99.90
38726;DHT22;24474;48.906;8.808;2024-01-15T00:55:03;-1.80;99.90
38726;DHT22;24474;48.906;8.808;2024-01-15T00:57:29;-1.80;99.90
38726;DHT22;24474;48.906;8.808;2024-01-15T00:59:55;-1.80;99.90
38726;DHT22;24474;48.906;8.808;2024-01-15T01:02:20;-1.80;99.90
38726;DHT22;24474;48.906;8.808;2024-01-15T01:04:46;-1.80;99.90
38726;DHT22;24474;48.906;8.808;2024-01-15T01:07:12;-1.70;99.90
38726;DHT22;24474;48.906;8.808;2024-01-15T01:09:37;-1.70;99.90
38726;DHT22;24474;48.906;8.808;2024-01-15T01:12:03;-1.70;99.90
38726;DHT22;24474;48.906;8.808;2024-01-15T01:14:29;-1.70;99.90
38726;DHT22;24474;48.906;8.808;2024-01-15T01:16:54;-1.70;99.90
38726;DHT22;24474;48.906;8.808;2024-01-15T01:19:20;-1.70;99.90
38726;DHT22;24474;48.906;8.808;2024-01-15T01:21:46;-1.70;99.90
38726;DHT22;24474;48.906;8.808;2024-01-15T01:24:11;-1.70;99.90
38726;DHT22;24474;48.906;8.808;2024-01-15T01:26:37;-1.60;99.90
38726;DHT22;24474;48.906;8.808;2024-01-15T01:29:02;-1.60;99.90
38726;DHT22;24474;48.906;8.808;2024-01-15T01:31:28;-1.60;99.90
38726;DHT22;24474;48.906;8.808;2024-01-15T01:33:54;-1.70;99.90
38726;DHT22;24474;48.906;8.808;2024-01-15T01:36:19;-1.60;99.90
38726;DHT22;24474;48.906;8.808;2024-01-15T01:38:45;-1.70;99.90
38726;DHT22;24474;48.906;8.808;2024-01-15T01:41:11;-1.60;99.90
38726;DHT22;24474;48.906;8.808;2024-01-15T01:43:36;-1.60;99.90
38726;DHT22;24474;48.906;8.808;2024-01-15T01:46:03;-1.60;99.90
38726;DHT22;24474;48.906;8.808;2024-01-15T01:48:30;-1.60;99.90
38726;DHT22;24474;48.906;8.808;2024-01-15T01:50:58;-1.60;99.90
38726;DHT22;24474;48.906;8.808;2024-01-15T01:53:26;-1.60;99.90
38726;DHT22;24474;48.906;8.808;2024-01-15T01:55:52;-1.50;99.90
38726;DHT22;24474;48.906;8.808;2024-01-15T01:58:19;-1.60;99.90
38726;DHT22;24474;48.906;8.808;2024-01-15T02:00:46;-1.60;99.90
38726;DHT22;24474;48.906;8.808;2024-01-15T02:03:12;-1.50;99.90
38726;DHT22;24474;48.906;8.808;2024-01-15T02:05:39;-1.50;99.90
38726;DHT22;24474;48.906;8.808;2024-01-15T02:08:05;-1.50;99.90
38726;DHT22;24474;48.906;8.808;2024-01-15T02:10:31;-1.50;99.90
38726;DHT22;24474;48.906;8.808;2024-01-15T02:12:57;-1.50;99.90
38726;DHT22;24474;48.906;8.808;2024-01-15T02:15:23;-1.40;99.90
38726;DHT22;24474;48.906;8.808;2024-01-15T02:20:28;-1.40;99.90
38726;DHT22;24474;48.906;8.808;2024-01-15T02:22:53;-1.40;99.90
38726;DHT22;24474;48.906;8.808;2024-01-15T02:25:19;-1.40;99.90
38726;DHT22;24474;48.906;8.808;2024-01-15T02:27:46;-1.40;99.90
38726;DHT22;24474;48.906;8.808;2024-01-15T02:30:12;-1.40;99.90
38726;DHT22;24474;48.906;8.808;2024-01-15T02:32:41;-1.40;99.90
38726;DHT22;24474;48.906;8.808;2024-01-15T02:35:07;-1.40;99.90
38726;DHT22;24474;48.906;8.808;2024-01-15T02:37:32;-1.40;99.90
38726;DHT22;24474;48.906;8.808;2024-01-15T02:39:58;-1.40;99.90
38726;DHT22;24474;48.906;8.808;2024-01-15T02:42:25;-1.30;99.90
38726;DHT22;24474;48.906;8.808;2024-01-15T02:44:51;-1.30;99.90
38726;DHT22;24474;48.906;8.808;2024-01-15T02:47:17;-1.30;99.90
38726;DHT22;24474;48.906;8.808;2024-01-15T02:49:42;-1.30;99.90
38726;DHT22;24474;48.906;8.808;2024-01-15T02:52:08;-1.30;99.90
38726;DHT22;24474;48.906;8.808;2024-01-15T02:54:34;-1.30;99.90
38726;DHT22;24474;48.906;8.808;2024-01-15T02:56:59;-1.30;99.90
38726;DHT22;24474;48.906;8.808;2024-01-15T02:59:25;-1.30;99.90
38726;DHT22;24474;48.906;8.808;2024-01-15T03:01:51;-1.30;99.90
38726;DHT22;24474;48.906;8.808;2024-01-15T03:04:16;-1.30;99.90
38726;DHT22;24474;48.906;8.808;2024-01-15T03:06:42;-1.30;99.90
38726;DHT22;24474;48.906;8.808;2024-01-15T03:09:07;-1.30;99.90
38726;DHT22;24474;48.906;8.808;2024-01-15T03:11:39;-1.30;99.90
38726;DHT22;24474;48.906;8.808;2024-01-15T03:14:05;-1.20;99.90
38726;DHT22;24474;48.906;8.808;2024-01-15T03:16:30;-1.20;99.90
38726;DHT22;24474;48.906;8.808;2024-01-15T03:18:56;-1.20;99.90
38726;DHT22;24474;48.906;8.808;2024-01-15T03:21:22;-1.20;99.90
38726;DHT22;24474;48.906;8.808;2024-01-15T03:23:47;-1.20;99.90
38726;DHT22;24474;48.906;8.808;2024-01-15T03:26:13;-1.20;99.90
38726;DHT22;24474;48.906;8.808;2024-01-15T03:28:39;-1.10;99.90
38726;DHT22;24474;48.906;8.808;2024-01-15T03:31:04;-1.20;99.90
38726;DHT22;24474;48.906;8.808;2024-01-15T03:33:30;-1.20;99.90
38726;DHT22;24474;48.906;8.808;2024-01-15T03:35:56;-1.20;99.90
38726;DHT22;24474;48.906;8.808;2024-01-15T03:38:23;-1.20;99.90
38726;DHT22;24474;48.906;8.808;2024-01-15T03:40:48;-1.10;99.90
38726;DHT22;24474;48.906;8.808;2024-01-15T03:43:14;-1.10;99.90
38726;DHT22;24474;48.906;8.808;2024-01-15T03:45:40;-1.10;99.90
38726;DHT22;24474;48.906;8.808;2024-01-15T03:48:06;-1.10;99.90
38726;DHT22;24474;48.906;8.808;2024-01-15T03:50:31;-1.10;99.90
38726;DHT22;24474;48.906;8.808;2024-01-15T03:52:58;-1.10;99.90
38726;DHT22;24474;48.906;8.808;2024-01-15T03:55:23;-1.10;99.90
38726;DHT22;24474;48.906;8.808;2024-01-15T03:57:49;-1.00;99.90
38726;DHT22;24474;48.906;8.808;2024-01-15T04:00:15;-1.00;99.90
38726;DHT22;24474;48.906;8.808;2024-01-15T04:02:43;-1.00;99.90
38726;DHT22;24474;48.906;8.808;2024-01-15T04:05:09;-1.00;99.90
38726;DHT22;24474;48.906;8.808;2024-01-15T04:07:35;-1.00;99.90
38726;DHT22;24474;48.906;8.808;2024-01-15T04:10:01;-1.00;99.90
38726;DHT22;24474;48.906;8.808;2024-01-15T04:12:27;-1.00;99.90
38726;DHT22;24474;48.906;8.808;2024-01-15T04:14:52;-1.00;99.90
38726;DHT22;24474;48.906;8.808;2024-01-15T04:17:18;-1.00;99.90
38726;DHT22;24474;48.906;8.808;2024-01-15T04:19:44;-0.90;99.90
38726;DHT22;24474;48.906;8.808;2024-01-15T04:22:10;-0.90;99.90
38726;DHT22;24474;48.906;8.808;2024-01-15T04:24:35;-0.90;99.90
38726;DHT22;24474;48.906;8.808;2024-01-15T04:27:01;-0.90;99.90
38726;DHT22;24474;48.906;8.808;2024-01-15T04:29:26;-0.80;99.90
38726;DHT22;24474;48.906;8.808;2024-01-15T04:31:53;-0.90;99.90
38726;DHT22;24474;48.906;8.808;2024-01-15T04:34:18;-0.80;99.90
38726;DHT22;24474;48.906;8.808;2024-01-15T04:36:44;-0.80;99.90
38726;DHT22;24474;48.906;8.808;2024-01-15T04:39:10;-0.90;99.90
38726;DHT22;24474;48.906;8.808;2024-01-15T04:41:37;-0.80;99.90
38726;DHT22;24474;48.906;8.808;2024-01-15T04:44:02;-0.80;99.90
38726;DHT22;24474;48.906;8.808;2024-01-15T04:46:28;-0.80;99.90
38726;DHT22;24474;48.906;8.808;2024-01-15T04:48:54;-0.80;99.90
38726;DHT22;24474;48.906;8.808;2024-01-15T04:51:20;-0.80;99.90
38726;DHT22;24474;48.906;8.808;2024-01-15T04:53:45;-0.70;99.90
38726;DHT22;24474;48.906;8.808;2024-01-15T04:56:11;-0.70;99.90
38726;DHT22;24474;48.906;8.808;2024-01-15T04:58:36;-0.70;99.90
38726;DHT22;24474;48.906;8.808;2024-01-15T05:01:02;-0.70;99.90
38726;DHT22;24474;48.906;8.808;2024-01-15T05:03:29;-0.70;99.90
38726;DHT22;24474;48.906;8.808;2024-01-15T05:05:55;-0.70;99.90
38726;DHT22;24474;48.906;8.808;2024-01-15T05:08:21;-0.60;99.90
38726;DHT22;24474;48.906;8.808;2024-01-15T05:10:47;-0.60;99.90
38726;DHT22;24474;48.906;8.808;2024-01-15T05:13:13;-0.60;99.90
38726;DHT22;24474;48.906;8.808;2024-01-15T05:15:38;-0.60;99.90
38726;DHT22;24474;48.906;8.808;2024-01-15T05:18:04;-0.60;99.90
38726;DHT22;24474;48.906;8.808;2024-01-15T05:20:30;-0.60;99.90
38726;DHT22;24474;48.906;8.808;2024-01-15T05:22:56;-0.50;99.90
38726;DHT22;24474;48.906;8.808;2024-01-15T05:25:21;-0.60;99.90
38726;DHT22;24474;48.906;8.808;2024-01-15T05:27:48;-0.60;99.90
38726;DHT22;24474;48.906;8.808;2024-01-15T05:30:13;-0.50;99.90
38726;DHT22;24474;48.906;8.808;2024-01-15T05:32:39;-0.50;99.90
38726;DHT22;24474;48.906;8.808;2024-01-15T05:35:05;-0.60;99.90
38726;DHT22;24474;48.906;8.808;2024-01-15T05:37:31;-0.60;99.90
38726;DHT22;24474;48.906;8.808;2024-01-15T05:39:57;-0.50;99.90
38726;DHT22;24474;48.906;8.808;2024-01-15T05:42:22;-0.50;99.90
38726;DHT22;24474;48.906;8.808;2024-01-15T05:44:48;-0.50;99.90
38726;DHT22;24474;48.906;8.808;2024-01-15T05:47:14;-0.50;99.90
38726;DHT22;24474;48.906;8.808;2024-01-15T05:49:39;-0.50;99.90
38726;DHT22;24474;48.906;8.808;2024-01-15T05:52:05;-0.50;99.90
38726;DHT22;24474;48.906;8.808;2024-01-15T05:54:31;-0.50;99.90
38726;DHT22;24474;48.906;8.808;2024-01-15T05:56:57;-0.50;99.90
38726;DHT22;24474;48.906;8.808;2024-01-15T05:59:22;-0.40;99.90
38726;DHT22;24474;48.906;8.808;2024-01-15T06:01:48;-0.40;99.90
38726;DHT22;24474;48.906;8.808;2024-01-15T06:04:14;-0.40;99.90
38726;DHT22;24474;48.906;8.808;2024-01-15T06:06:40;-0.40;99.90
38726;DHT22;24474;48.906;8.808;2024-01-15T06:09:05;-0.30;99.90
38726;DHT22;24474;48.906;8.808;2024-01-15T06:11:31;-0.40;99.90
38726;DHT22;24474;48.906;8.808;2024-01-15T06:13:57;-0.40;99.90
38726;DHT22;24474;48.906;8.808;2024-01-15T06:16:23;-0.40;99.90
38726;DHT22;24474;48.906;8.808;2024-01-15T06:18:49;-0.30;99.90
38726;DHT22;24474;48.906;8.808;2024-01-15T06:21:16;-0.30;99.90
38726;DHT22;24474;48.906;8.808;2024-01-15T06:23:41;-0.30;99.90
38726;DHT22;24474;48.906;8.808;2024-01-15T06:26:07;-0.40;99.90
38726;DHT22;24474;48.906;8.808;2024-01-15T06:28:32;-0.30;99.90
38726;DHT22;24474;48.906;8.808;2024-01-15T06:30:58;-0.30;99.90
38726;DHT22;24474;48.906;8.808;2024-01-15T06:33:24;-0.30;99.90
38726;DHT22;24474;48.906;8.808;2024-01-15T06:35:50;-0.30;99.90
38726;DHT22;24474;48.906;8.808;2024-01-15T06:38:16;-0.30;99.90
38726;DHT22;24474;48.906;8.808;2024-01-15T06:40:42;-0.30;99.90
38726;DHT22;24474;48.906;8.808;2024-01-15T06:43:11;-0.30;99.90
38726;DHT22;24474;48.906;8.808;2024-01-15T06:45:37;-0.30;99.90
38726;DHT22;24474;48.906;8.808;2024-01-15T06:48:03;-0.30;99.90
38726;DHT22;24474;48.906;8.808;2024-01-15T06:50:29;-0.20;99.90
38726;DHT22;24474;48.906;8.808;2024-01-15T06:52:54;-0.20;99.90
38726;DHT22;24474;48.906;8.808;2024-01-15T06:55:20;-0.30;99.90
38726;DHT22;24474;48.906;8.808;2024-01-15T06:57:46;-0.20;99.90
38726;DHT22;24474;48.906;8.808;2024-01-15T07:00:12;-0.20;99.90
38726;DHT22;24474;48.906;8.808;2024-01-15T07:02:38;-0.20;99.90
38726;DHT22;24474;48.906;8.808;2024-01-15T07:05:04;-0.20;99.90
38726;DHT22;24474;48.906;8.808;2024-01-15T07:07:31;-0.10;99.90
38726;DHT22;24474;48.906;8.808;2024-01-15T07:09:56;-0.10;99.90
38726;DHT22;24474;48.906;8.808;2024-01-15T07:12:23;-0.10;99.90
38726;DHT22;24474;48.906;8.808;2024-01-15T07:14:49;0.00;99.90
38726;DHT22;24474;48.906;8.808;2024-01-15T07:17:15;-0.10;99.90
38726;DHT22;24474;48.906;8.808;2024-01-15T07:19:41;0.00;99.90
38726;DHT22;24474;48.906;8.808;2024-01-15T07:22:06;0.00;99.90
38726;DHT22;24474;48.906;8.808;2024-01-15T07:24:32;0.00;99.90
38726;DHT22;24474;48.906;8.808;2024-01-15T07:27:00;0.00;99.90
38726;DHT22;24474;48.906;8.808;2024-01-15T07:29:27;0.00;99.90
38726;DHT22;24474;48.906;8.808;2024-01-15T07:31:52;0.00;99.90
38726;DHT22;24474;48.906;8.808;2024-01-15T07:34:18;0.00;99.90
38726;DHT22;24474;48.906;8.808;2024-01-15T07:36:44;0.00;99.90
38726;DHT22;24474;48.906;8.808;2024-01-15T07:39:10;0.00;99.90
38726;DHT22;24474;48.906;8.808;2024-01-15T07:41:36;0.10;99.90
38726;DHT22;24474;48.906;8.808;2024-01-15T07:44:02;0.10;99.90
38726;DHT22;24474;48.906;8.808;2024-01-15T07:46:28;0.10;99.90
38726;DHT22;24474;48.906;8.808;2024-01-15T07:48:54;0.10;99.90
38726;DHT22;24474;48.906;8.808;2024-01-15T07:51:23;0.10;99.90
38726;DHT22;24474;48.906;8.808;2024-01-15T07:53:49;0.10;99.90
38726;DHT22;24474;48.906;8.808;2024-01-15T07:56:15;0.10;99.90
38726;DHT22;24474;48.906;8.808;2024-01-15T07:58:41;0.10;99.90
38726;DHT22;24474;48.906;8.808;2024-01-15T08:01:07;0.10;99.90
38726;DHT22;24474;48.906;8.808;2024-01-15T08:03:35;0.10;99.90
38726;DHT22;24474;48.906;8.808;2024-01-15T08:06:01;0.10;99.90
38726;DHT22;24474;48.906;8.808;2024-01-15T08:08:26;0.20;99.90
38726;DHT22;24474;48.906;8.808;2024-01-15T08:10:52;0.10;99.90
38726;DHT22;24474;48.906;8.808;2024-01-15T08:13:18;0.20;99.90
38726;DHT22;24474;48.906;8.808;2024-01-15T08:15:44;0.20;99.90
38726;DHT22;24474;48.906;8.808;2024-01-15T08:18:10;0.20;99.90
38726;DHT22;24474;48.906;8.808;2024-01-15T08:20:35;0.20;99.90
38726;DHT22;24474;48.906;8.808;2024-01-15T08:23:01;0.20;99.90
38726;DHT22;24474;48.906;8.808;2024-01-15T08:25:26;0.20;99.90
38726;DHT22;24474;48.906;8.808;2024-01-15T08:27:52;0.20;99.90
38726;DHT22;24474;48.906;8.808;2024-01-15T08:30:19;0.30;99.90
38726;DHT22;24474;48.906;8.808;2024-01-15T08:32:47;0.30;99.90
38726;DHT22;24474;48.906;8.808;2024-01-15T08:35:14;0.30;99.90
38726;DHT22;24474;48.906;8.808;2024-01-15T08:37:39;0.30;99.90
38726;DHT22;24474;48.906;8.808;2024-01-15T08:40:06;0.30;99.90
38726;DHT22;24474;48.906;8.808;2024-01-15T08:42:32;0.30;99.90
38726;DHT22;24474;48.906;8.808;2024-01-15T08:44:58;0.30;99.90
38726;DHT22;24474;48.906;8.808;2024-01-15T08:47:24;0.30;99.90
38726;DHT22;24474;48.906;8.808;2024-01-15T08:49:51;0.30;99.90
38726;DHT22;24474;48.906;8.808;2024-01-15T08:52:18;0.30;99.90
38726;DHT22;24474;48.906;8.808;2024-01-15T08:54:44;0.30;99.90
38726;DHT22;24474;48.906;8.808;2024-01-15T08:57:09;0.30;99.90
38726;DHT22;24474;48.906;8.808;2024-01-15T08:59:37;0.40;99.90
38726;DHT22;24474;48.906;8.808;2024-01-15T09:02:05;0.40;99.90
38726;DHT22;24474;48.906;8.808;2024-01-15T09:04:30;0.40;99.90
38726;DHT22;24474;48.906;8.808;2024-01-15T09:06:56;0.40;99.90
38726;DHT22;24474;48.906;8.808;2024-01-15T09:09:22;0.40;99.90
38726;DHT22;24474;48.906;8.808;2024-01-15T09:11:49;0.40;99.90
38726;DHT22;24474;48.906;8.808;2024-01-15T09:14:16;0.40;99.90
38726;DHT22;24474;48.906;8.808;2024-01-15T09:16:42;0.40;99.90
38726;DHT22;24474;48.906;8.808;2024-01-15T09:19:08;0.40;99.90
38726;DHT22;24474;48.906;8.808;2024-01-15T09:21:34;0.40;99.90
38726;DHT22;24474;48.906;8.808;2024-01-15T09:24:02;0.50;99.90
38726;DHT22;24474;48.906;8.808;2024-01-15T09:26:30;0.50;99.90
38726;DHT22;24474;48.906;8.808;2024-01-15T09:29:00;0.50;99.90
38726;DHT22;24474;48.906;8.808;2024-01-15T09:31:27;0.40;99.90
38726;DHT22;24474;48.906;8.808;2024-01-15T09:33:52;0.50;99.90
38726;DHT22;24474;48.906;8.808;2024-01-15T09:36:22;0.50;99.90
38726;DHT22;24474;48.906;8.808;2024-01-15T09:38:49;0.50;99.90
38726;DHT22;24474;48.906;8.808;2024-01-15T09:41:16;0.50;99.90
38726;DHT22;24474;48.906;8.808;2024-01-15T09:43:45;0.50;99.90
38726;DHT22;24474;48.906;8.808;2024-01-15T09:46:11;0.50;99.90
38726;DHT22;24474;48.906;8.808;2024-01-15T09:48:37;0.60;99.90
38726;DHT22;24474;48.906;8.808;2024-01-15T09:51:04;0.60;99.90
38726;DHT22;24474;48.906;8.808;2024-01-15T09:53:44;0.60;99.90
38726;DHT22;24474;48.906;8.808;2024-01-15T09:56:12;0.60;99.90
38726;DHT22;24474;48.906;8.808;2024-01-15T09:58:38;0.60;99.90
38726;DHT22;24474;48.906;8.808;2024-01-15T10:01:06;0.60;99.90
38726;DHT22;24474;48.906;8.808;2024-01-15T10:03:33;0.70;99.90
38726;DHT22;24474;48.906;8.808;2024-01-15T10:06:00;0.70;99.90
38726;DHT22;24474;48.906;8.808;2024-01-15T10:08:28;0.70;99.90
38726;DHT22;24474;48.906;8.808;2024-01-15T10:10:54;0.70;99.90
38726;DHT22;24474;48.906;8.808;2024-01-15T10:13:21;0.70;99.90
38726;DHT22;24474;48.906;8.808;2024-01-15T10:15:48;0.70;99.90
38726;DHT22;24474;48.906;8.808;2024-01-15T10:18:15;0.70;99.90
38726;DHT22;24474;48.906;8.808;2024-01-15T10:20:41;0.70;99.90
38726;DHT22;24474;48.906;8.808;2024-01-15T10:23:11;0.80;99.90
38726;DHT22;24474;48.906;8.808;2024-01-15T10:25:38;0.80;99.90
38726;DHT22;24474;48.906;8.808;2024-01-15T10:28:05;0.80;99.90
38726;DHT22;24474;48.906;8.808;2024-01-15T10:30:32;0.80;99.90
38726;DHT22;24474;48.906;8.808;2024-01-15T10:33:23;0.80;99.90
38726;DHT22;24474;48.906;8.808;2024-01-15T10:36:09;0.80;99.90
38726;DHT22;24474;48.906;8.808;2024-01-15T10:38:37;0.80;99.90
38726;DHT22;24474;48.906;8.808;2024-01-15T10:41:04;0.80;99.90
38726;DHT22;24474;48.906;8.808;2024-01-15T10:43:31;0.80;99.90
38726;DHT22;24474;48.906;8.808;2024-01-15T10:45:57;0.80;99.90
38726;DHT22;24474;48.906;8.808;2024-01-15T10:48:22;0.80;99.90
38726;DHT22;24474;48.906;8.808;2024-01-15T10:50:48;0.80;99.90
38726;DHT22;24474;48.906;8.808;2024-01-15T10:53:16;0.80;99.90
38726;DHT22;24474;48.906;8.808;2024-01-15T10:55:43;0.80;99.90
38726;DHT22;24474;48.906;8.808;2024-01-15T10:58:10;0.80;99.90
38726;DHT22;24474;48.906;8.808;2024-01-15T11:00:36;0.80;99.90
38726;DHT22;24474;48.906;8.808;2024-01-15T11:03:08;0.80;99.90
38726;DHT22;24474;48.906;8.808;2024-01-15T11:05:37;0.70;99.90
38726;DHT22;24474;48.906;8.808;2024-01-15T11:08:08;0.70;99.90
38726;DHT22;24474;48.906;8.808;2024-01-15T11:10:38;0.70;99.90
38726;DHT22;24474;48.906;8.808;2024-01-15T11:13:08;0.70;99.90
38726;DHT22;24474;48.906;8.808;2024-01-15T11:15:55;0.70;99.90
38726;DHT22;24474;48.906;8.808;2024-01-15T11:18:20;0.70;99.90
38726;DHT22;24474;48.906;8.808;2024-01-15T11:23:59;0.80;99.90
38726;DHT22;24474;48.906;8.808;2024-01-15T11:32:03;0.70;99.90
38726;DHT22;24474;48.906;8.808;2024-01-15T11:34:54;0.70;99.90
38726;DHT22;24474;48.906;8.808;2024-01-15T11:37:26;0.70;99.90
38726;DHT22;24474;48.906;8.808;2024-01-15T11:40:01;0.70;99.90
38726;DHT22;24474;48.906;8.808;2024-01-15T11:42:30;0.70;99.90
38726;DHT22;24474;48.906;8.808;2024-01-15T11:44:57;0.70;99.90
38726;DHT22;24474;48.906;8.808;2024-01-15T11:50:26;0.70;99.90
38726;DHT22;24474;48.906;8.808;2024-01-15T11:53:03;0.70;99.90
38726;DHT22;24474;48.906;8.808;2024-01-15T11:55:41;0.70;99.90
38726;DHT22;24474;48.906;8.808;2024-01-15T11:58:12;0.70;99.90
38726;DHT22;24474;48.906;8.808;2024-01-15T12:00:47;0.70;99.90
38726;DHT22;24474;48.906;8.808;2024-01-15T12:03:14;0.70;99.90
38726;DHT22;24474;48.906;8.808;2024-01-15T12:05:40;0.60;99.90
38726;DHT22;24474;48.906;8.808;2024-01-15T12:08:07;0.60;99.90
38726;DHT22;24474;48.906;8.808;2024-01-15T12:10:39;0.60;99.90
38726;DHT22;24474;48.906;8.808;2024-01-15T12:13:12;0.60;99.90
38726;DHT22;24474;48.906;8.808;2024-01-15T12:15:39;0.60;99.90
38726;DHT22;24474;48.906;8.808;2024-01-15T12:18:09;0.60;99.90
38726;DHT22;24474;48.906;8.808;2024-01-15T12:20:35;0.60;99.90
38726;DHT22;24474;48.906;8.808;2024-01-15T12:23:01;0.60;99.90
38726;DHT22;24474;48.906;8.808;2024-01-15T12:25:32;0.60;99.90
38726;DHT22;24474;48.906;8.808;2024-01-15T12:28:02;0.60;99.90
38726;DHT22;24474;48.906;8.808;2024-01-15T12:30:29;0.60;99.90
38726;DHT22;24474;48.906;8.808;2024-01-15T12:32:57;0.60;99.90
38726;DHT22;24474;48.906;8.808;2024-01-15T12:35:24;0.60;99.90
38726;DHT22;24474;48.906;8.808;2024-01-15T12:37:51;0.60;99.90
38726;DHT22;24474;48.906;8.808;2024-01-15T12:40:21;0.60;99.90
38726;DHT22;24474;48.906;8.808;2024-01-15T12:42:47;0.60;99.90
38726;DHT22;24474;48.906;8.808;2024-01-15T12:45:13;0.50;99.90
38726;DHT22;24474;48.906;8.808;2024-01-15T12:47:40;0.50;99.90
38726;DHT22;24474;48.906;8.808;2024-01-15T12:50:10;0.50;99.90
38726;DHT22;24474;48.906;8.808;2024-01-15T12:52:36;0.50;99.90
38726;DHT22;24474;48.906;8.808;2024-01-15T12:55:05;0.50;99.90
38726;DHT22;24474;48.906;8.808;2024-01-15T12:57:30;0.50;99.90
38726;DHT22;24474;48.906;8.808;2024-01-15T12:59:56;0.50;99.90
38726;DHT22;24474;48.906;8.808;2024-01-15T13:02:22;0.50;99.90
38726;DHT22;24474;48.906;8.808;2024-01-15T13:04:48;0.50;99.90
38726;DHT22;24474;48.906;8.808;2024-01-15T13:07:14;0.50;99.90
38726;DHT22;24474;48.906;8.808;2024-01-15T13:09:39;0.50;99.90
38726;DHT22;24474;48.906;8.808;2024-01-15T13:12:05;0.50;99.90
38726;DHT22;24474;48.906;8.808;2024-01-15T13:14:31;0.60;99.90
38726;DHT22;24474;48.906;8.808;2024-01-15T13:16:58;0.60;99.90
38726;DHT22;24474;48.906;8.808;2024-01-15T13:19:24;0.60;99.90
38726;DHT22;24474;48.906;8.808;2024-01-15T13:21:50;0.60;99.90
38726;DHT22;24474;48.906;8.808;2024-01-15T13:24:17;0.60;99.90
38726;DHT22;24474;48.906;8.808;2024-01-15T13:26:43;0.60;99.90
38726;DHT22;24474;48.906;8.808;2024-01-15T13:29:09;0.60;99.90
38726;DHT22;24474;48.906;8.808;2024-01-15T13:31:36;0.60;99.90
38726;DHT22;24474;48.906;8.808;2024-01-15T13:34:01;0.60;99.90
38726;DHT22;24474;48.906;8.808;2024-01-15T13:36:29;0.60;99.90
38726;DHT22;24474;48.906;8.808;2024-01-15T13:38:55;0.60;99.90
38726;DHT22;24474;48.906;8.808;2024-01-15T13:41:21;0.60;99.90
38726;DHT22;24474;48.906;8.808;2024-01-15T13:43:50;0.60;99.90
38726;DHT22;24474;48.906;8.808;2024-01-15T13:46:19;0.60;99.90
38726;DHT22;24474;48.906;8.808;2024-01-15T13:48:45;0.70;99.90
38726;DHT22;24474;48.906;8.808;2024-01-15T13:51:11;0.60;99.90
38726;DHT22;24474;48.906;8.808;2024-01-15T13:53:38;0.70;99.90
38726;DHT22;24474;48.906;8.808;2024-01-15T13:56:04;0.60;99.90
38726;DHT22;24474;48.906;8.808;2024-01-15T13:58:30;0.60;99.90
38726;DHT22;24474;48.906;8.808;2024-01-15T14:00:56;0.60;99.90
38726;DHT22;24474;48.906;8.808;2024-01-15T14:03:22;0.60;99.90
38726;DHT22;24474;48.906;8.808;2024-01-15T14:05:48;0.60;99.90
38726;DHT22;24474;48.906;8.808;2024-01-15T14:08:13;0.60;99.90
38726;DHT22;24474;48.906;8.808;2024-01-15T14:10:39;0.60;99.90
38726;DHT22;24474;48.906;8.808;2024-01-15T14:13:05;0.60;99.90
38726;DHT22;24474;48.906;8.808;2024-01-15T14:15:30;0.60;99.90
38726;DHT22;24474;48.906;8.808;2024-01-15T14:17:56;0.60;99.90
38726;DHT22;24474;48.906;8.808;2024-01-15T14:20:23;0.60;99.90
38726;DHT22;24474;48.906;8.808;2024-01-15T14:22:49;0.60;99.90
38726;DHT22;24474;48.906;8.808;2024-01-15T14:25:14;0.50;99.90
38726;DHT22;24474;48.906;8.808;2024-01-15T14:27:40;0.50;99.90
38726;DHT22;24474;48.906;8.808;2024-01-15T14:30:06;0.50;99.90
38726;DHT22;24474;48.906;8.808;2024-01-15T14:32:34;0.50;99.90
38726;DHT22;24474;48.906;8.808;2024-01-15T14:35:00;0.50;99.90
38726;DHT22;24474;48.906;8.808;2024-01-15T14:37:25;0.50;99.90
38726;DHT22;24474;48.906;8.808;2024-01-15T14:39:51;0.50;99.90
38726;DHT22;24474;48.906;8.808;2024-01-15T14:42:17;0.50;99.90
38726;DHT22;24474;48.906;8.808;2024-01-15T14:44:43;0.40;99.90
38726;DHT22;24474;48.906;8.808;2024-01-15T14:47:09;0.50;99.90
38726;DHT22;24474;48.906;8.808;2024-01-15T14:49:34;0.50;99.90
38726;DHT22;24474;48.906;8.808;2024-01-15T14:52:00;0.50;99.90
38726;DHT22;24474;48.906;8.808;2024-01-15T14:54:26;0.50;99.90
38726;DHT22;24474;48.906;8.808;2024-01-15T14:56:52;0.50;99.90
38726;DHT22;24474;48.906;8.808;2024-01-15T14:59:17;0.50;99.90
38726;DHT22;24474;48.906;8.808;2024-01-15T15:01:43;0.50;99.90
38726;DHT22;24474;48.906;8.808;2024-01-15T15:04:09;0.50;99.90
38726;DHT22;24474;48.906;8.808;2024-01-15T15:06:38;0.50;99.90
38726;DHT22;24474;48.906;8.808;2024-01-15T15:09:04;0.50;99.90
38726;DHT22;24474;48.906;8.808;2024-01-15T15:11:35;0.50;99.90
38726;DHT22;24474;48.906;8.808;2024-01-15T15:14:01;0.50;99.90
38726;DHT22;24474;48.906;8.808;2024-01-15T15:16:27;0.40;99.90
38726;DHT22;24474;48.906;8.808;2024-01-15T15:18:55;0.50;99.90
38726;DHT22;24474;48.906;8.808;2024-01-15T15:21:21;0.50;99.90
38726;DHT22;24474;48.906;8.808;2024-01-15T15:23:46;0.40;99.90
38726;DHT22;24474;48.906;8.808;2024-01-15T15:26:13;0.40;99.90
38726;DHT22;24474;48.906;8.808;2024-01-15T15:28:39;0.40;99.90
38726;DHT22;24474;48.906;8.808;2024-01-15T15:31:08;0.40;99.90
38726;DHT22;24474;48.906;8.808;2024-01-15T15:33:34;0.40;99.90
38726;DHT22;24474;48.906;8.808;2024-01-15T15:36:00;0.40;99.90
38726;DHT22;24474;48.906;8.808;2024-01-15T15:38:30;0.40;99.90
38726;DHT22;24474;48.906;8.808;2024-01-15T15:40:56;0.30;99.90
38726;DHT22;24474;48.906;8.808;2024-01-15T15:43:22;0.30;99.90
38726;DHT22;24474;48.906;8.808;2024-01-15T15:45:48;0.30;99.90
38726;DHT22;24474;48.906;8.808;2024-01-15T15:48:13;0.30;99.90
38726;DHT22;24474;48.906;8.808;2024-01-15T15:50:39;0.30;99.90